createdAt,value
2018-03-03T00:00:24.028Z,976.66
2018-03-03T00:01:24.035Z,976.63
2018-03-03T00:02:24.046Z,976.64
2018-03-03T00:03:24.047Z,976.60
2018-03-03T00:04:24.060Z,976.58
2018-03-03T00:05:24.065Z,976.60
2018-03-03T00:06:24.069Z,976.60
2018-03-03T00:07:24.076Z,976.60
2018-03-03T00:08:24.085Z,976.60
2018-03-03T00:09:24.089Z,976.58
2018-03-03T00:10:24.104Z,976.57
2018-03-03T00:11:24.104Z,976.56
2018-03-03T00:12:24.110Z,976.55
2018-03-03T00:13:24.116Z,976.54
2018-03-03T00:14:24.122Z,976.55
2018-03-03T00:15:24.131Z,976.49
2018-03-03T00:16:24.138Z,976.47
2018-03-03T00:17:24.145Z,976.53
2018-03-03T00:18:24.151Z,976.50
2018-03-03T00:19:24.158Z,976.52
2018-03-03T00:20:24.165Z,976.49
2018-03-03T00:21:24.170Z,976.51
2018-03-03T00:22:24.177Z,976.51
2018-03-03T00:23:24.184Z,976.49
2018-03-03T00:24:24.192Z,976.52
2018-03-03T00:25:24.196Z,976.54
2018-03-03T00:26:24.206Z,976.47
2018-03-03T00:27:24.211Z,976.51
2018-03-03T00:28:24.218Z,976.53
2018-03-03T00:29:24.224Z,976.53
2018-03-03T00:30:24.232Z,976.54
2018-03-03T00:31:24.240Z,976.49
2018-03-03T00:32:24.245Z,976.50
2018-03-03T00:33:24.252Z,976.47
2018-03-03T00:34:24.259Z,976.46
2018-03-03T00:35:24.264Z,976.44
2018-03-03T00:36:24.272Z,976.46
2018-03-03T00:37:24.293Z,976.42
2018-03-03T00:38:24.285Z,976.44
2018-03-03T00:39:24.292Z,976.46
2018-03-03T00:40:24.299Z,976.44
2018-03-03T00:41:24.306Z,976.41
2018-03-03T00:42:24.312Z,976.40
2018-03-03T00:43:24.321Z,976.38
2018-03-03T00:44:24.325Z,976.41
2018-03-03T00:45:24.333Z,976.42
2018-03-03T00:46:24.391Z,976.36
2018-03-03T00:47:24.345Z,976.35
2018-03-03T00:48:24.352Z,976.38
2018-03-03T00:49:24.360Z,976.35
2018-03-03T00:50:24.366Z,976.34
2018-03-03T00:51:24.373Z,976.32
2018-03-03T00:52:24.379Z,976.32
2018-03-03T00:53:24.385Z,976.29
2018-03-03T00:54:24.391Z,976.31
2018-03-03T00:55:24.398Z,976.30
2018-03-03T00:56:24.407Z,976.29
2018-03-03T00:57:24.414Z,976.27
2018-03-03T00:58:24.419Z,976.27
2018-03-03T00:59:24.426Z,976.25
2018-03-03T01:00:24.434Z,976.23
2018-03-03T01:01:24.440Z,976.31
2018-03-03T01:02:24.446Z,976.25
2018-03-03T01:03:24.452Z,976.23
2018-03-03T01:04:24.460Z,976.21
2018-03-03T01:05:24.466Z,976.22
2018-03-03T01:06:24.472Z,976.24
2018-03-03T01:07:24.481Z,976.24
2018-03-03T01:08:24.487Z,976.23
2018-03-03T01:09:24.496Z,976.27
2018-03-03T01:10:24.500Z,976.28
2018-03-03T01:11:24.514Z,976.26
2018-03-03T01:12:24.513Z,976.20
2018-03-03T01:13:24.519Z,976.22
2018-03-03T01:14:24.526Z,976.18
2018-03-03T01:15:24.532Z,976.16
2018-03-03T01:16:24.540Z,976.16
2018-03-03T01:17:24.545Z,976.15
2018-03-03T01:18:24.552Z,976.15
2018-03-03T01:19:24.559Z,976.09
2018-03-03T01:20:24.565Z,976.10
2018-03-03T01:21:24.572Z,976.10
2018-03-03T01:22:24.579Z,976.13
2018-03-03T01:23:24.587Z,976.07
2018-03-03T01:24:24.592Z,976.07
2018-03-03T01:25:24.598Z,976.04
2018-03-03T01:26:24.604Z,976.08
2018-03-03T01:27:24.612Z,976.08
2018-03-03T01:28:24.619Z,976.08
2018-03-03T01:29:24.625Z,976.06
2018-03-03T01:30:24.631Z,976.12
2018-03-03T01:31:24.639Z,976.11
2018-03-03T01:32:24.647Z,976.13
2018-03-03T01:33:24.650Z,976.13
2018-03-03T01:34:24.657Z,976.10
2018-03-03T01:35:24.664Z,976.09
2018-03-03T01:36:24.672Z,976.06
2018-03-03T01:37:24.679Z,976.10
2018-03-03T01:38:24.685Z,976.07
2018-03-03T01:39:24.692Z,976.06
2018-03-03T01:40:24.698Z,976.07
2018-03-03T01:41:24.707Z,976.09
2018-03-03T01:42:24.711Z,976.06
2018-03-03T01:43:24.718Z,976.04
2018-03-03T01:44:24.725Z,976.07
2018-03-03T01:45:24.731Z,976.03
2018-03-03T01:46:24.738Z,975.99
2018-03-03T01:47:24.744Z,975.97
2018-03-03T01:48:24.754Z,975.94
2018-03-03T01:49:24.761Z,975.95
2018-03-03T01:50:24.764Z,975.93
2018-03-03T01:51:24.771Z,975.95
2018-03-03T01:52:24.778Z,975.95
2018-03-03T01:53:24.786Z,975.98
2018-03-03T01:54:24.796Z,975.99
2018-03-03T01:55:24.799Z,976.00
2018-03-03T01:56:24.804Z,976.00
2018-03-03T01:57:24.810Z,976.03
2018-03-03T01:58:24.818Z,975.98
2018-03-03T01:59:24.823Z,975.99
2018-03-03T02:00:24.830Z,975.98
2018-03-03T02:01:24.837Z,976.02
2018-03-03T02:02:24.843Z,975.96
2018-03-03T02:03:24.853Z,975.97
2018-03-03T02:04:24.857Z,975.95
2018-03-03T02:05:24.862Z,975.95
2018-03-03T02:06:24.869Z,975.89
2018-03-03T02:07:24.878Z,975.87
2018-03-03T02:08:24.883Z,975.81
2018-03-03T02:09:24.889Z,975.80
2018-03-03T02:10:24.896Z,975.79
2018-03-03T02:11:24.900Z,975.79
2018-03-03T02:12:24.910Z,975.80
2018-03-03T02:13:24.915Z,975.72
2018-03-03T02:14:24.927Z,975.75
2018-03-03T02:15:24.928Z,975.76
2018-03-03T02:16:24.934Z,975.72
2018-03-03T02:17:24.941Z,975.73
2018-03-03T02:18:24.948Z,975.76
2018-03-03T02:19:24.954Z,975.73
2018-03-03T02:20:24.963Z,975.73
2018-03-03T02:21:24.967Z,975.74
2018-03-03T02:22:24.977Z,975.73
2018-03-03T02:23:24.981Z,975.76
2018-03-03T02:24:24.991Z,975.77
2018-03-03T02:25:24.999Z,975.78
2018-03-03T02:26:24.998Z,975.77
2018-03-03T02:27:25.007Z,975.79
2018-03-03T02:28:25.014Z,975.74
2018-03-03T02:29:25.029Z,975.75
2018-03-03T02:30:25.027Z,975.73
2018-03-03T02:31:25.035Z,975.73
2018-03-03T02:32:25.041Z,975.70
2018-03-03T02:33:25.047Z,975.67
2018-03-03T02:34:25.051Z,975.66
2018-03-03T02:35:25.060Z,975.62
2018-03-03T02:36:25.068Z,975.62
2018-03-03T02:37:25.073Z,975.65
2018-03-03T02:38:25.080Z,975.63
2018-03-03T02:39:25.087Z,975.59
2018-03-03T02:40:25.094Z,975.61
2018-03-03T02:41:25.097Z,975.59
2018-03-03T02:42:25.106Z,975.59
2018-03-03T02:43:25.111Z,975.56
2018-03-03T02:44:25.120Z,975.53
2018-03-03T02:45:25.125Z,975.51
2018-03-03T02:46:25.133Z,975.52
2018-03-03T02:47:25.138Z,975.54
2018-03-03T02:48:25.144Z,975.51
2018-03-03T02:49:25.156Z,975.52
2018-03-03T02:50:25.157Z,975.50
2018-03-03T02:51:25.164Z,975.48
2018-03-03T02:52:25.176Z,975.48
2018-03-03T02:53:25.177Z,975.49
2018-03-03T02:54:25.186Z,975.49
2018-03-03T02:55:25.190Z,975.44
2018-03-03T02:56:25.196Z,975.43
2018-03-03T02:57:25.202Z,975.44
2018-03-03T02:58:25.209Z,975.40
2018-03-03T02:59:25.217Z,975.41
2018-03-03T03:00:25.220Z,975.40
2018-03-03T03:01:25.234Z,975.38
2018-03-03T03:02:25.233Z,975.35
2018-03-03T03:03:25.245Z,975.37
2018-03-03T03:04:25.249Z,975.38
2018-03-03T03:05:25.255Z,975.39
2018-03-03T03:06:25.261Z,975.34
2018-03-03T03:07:25.267Z,975.27
2018-03-03T03:08:25.274Z,975.24
2018-03-03T03:09:25.317Z,975.22
2018-03-03T03:10:25.286Z,975.25
2018-03-03T03:11:25.293Z,975.26
2018-03-03T03:12:25.302Z,975.21
2018-03-03T03:13:25.308Z,975.21
2018-03-03T03:14:25.312Z,975.21
2018-03-03T03:15:25.319Z,975.16
2018-03-03T03:16:25.325Z,975.18
2018-03-03T03:17:25.332Z,975.18
2018-03-03T03:18:25.337Z,975.15
2018-03-03T03:19:25.347Z,975.12
2018-03-03T03:20:25.350Z,975.11
2018-03-03T03:21:25.357Z,975.10
2018-03-03T03:22:25.365Z,975.08
2018-03-03T03:23:25.372Z,975.05
2018-03-03T03:24:25.378Z,975.03
2018-03-03T03:25:25.388Z,974.98
2018-03-03T03:26:25.390Z,974.95
2018-03-03T03:27:25.398Z,974.96
2018-03-03T03:28:25.404Z,974.90
2018-03-03T03:29:25.445Z,974.90
2018-03-03T03:30:25.418Z,974.89
2018-03-03T03:31:25.427Z,974.85
2018-03-03T03:32:25.430Z,974.85
2018-03-03T03:33:25.436Z,974.86
2018-03-03T03:34:25.442Z,974.84
2018-03-03T03:35:25.449Z,974.85
2018-03-03T03:36:25.456Z,974.87
2018-03-03T03:37:25.465Z,974.87
2018-03-03T03:38:25.468Z,974.84
2018-03-03T03:39:25.504Z,974.86
2018-03-03T03:40:25.482Z,974.82
2018-03-03T03:41:25.489Z,974.79
2018-03-03T03:42:25.495Z,974.77
2018-03-03T03:43:25.502Z,974.81
2018-03-03T03:44:25.507Z,974.81
2018-03-03T03:45:25.513Z,974.83
2018-03-03T03:46:25.519Z,974.85
2018-03-03T03:47:25.529Z,974.85
2018-03-03T03:48:25.534Z,974.88
2018-03-03T03:49:25.581Z,974.87
2018-03-03T03:50:25.546Z,974.86
2018-03-03T03:51:25.551Z,974.89
2018-03-03T03:52:25.559Z,974.84
2018-03-03T03:53:25.582Z,974.84
2018-03-03T03:54:25.572Z,974.85
2018-03-03T03:55:25.578Z,974.80
2018-03-03T03:56:25.587Z,974.82
2018-03-03T03:57:25.591Z,974.85
2018-03-03T03:58:25.605Z,974.83
2018-03-03T03:59:25.603Z,974.86
2018-03-03T04:00:25.609Z,974.85
2018-03-03T04:01:25.617Z,974.84
2018-03-03T04:02:25.623Z,974.85
2018-03-03T04:03:25.633Z,974.85
2018-03-03T04:04:25.637Z,974.81
2018-03-03T04:05:25.642Z,974.83
2018-03-03T04:06:25.650Z,974.87
2018-03-03T04:07:25.655Z,974.81
2018-03-03T04:08:25.661Z,974.83
2018-03-03T04:09:25.707Z,974.81
2018-03-03T04:10:25.675Z,974.81
2018-03-03T04:11:25.682Z,974.77
2018-03-03T04:12:25.688Z,974.73
2018-03-03T04:13:25.693Z,974.73
2018-03-03T04:14:25.699Z,974.73
2018-03-03T04:15:25.706Z,974.71
2018-03-03T04:16:25.715Z,974.70
2018-03-03T04:17:25.717Z,974.70
2018-03-03T04:18:25.725Z,974.73
2018-03-03T04:19:25.731Z,974.69
2018-03-03T04:20:25.738Z,974.69
2018-03-03T04:21:25.743Z,974.67
2018-03-03T04:22:25.751Z,974.64
2018-03-03T04:23:25.756Z,974.67
2018-03-03T04:24:25.763Z,974.63
2018-03-03T04:25:25.770Z,974.63
2018-03-03T04:26:25.776Z,974.64
2018-03-03T04:27:25.785Z,974.59
2018-03-03T04:28:25.793Z,974.59
2018-03-03T04:29:25.794Z,974.59
2018-03-03T04:30:25.800Z,974.60
2018-03-03T04:31:25.807Z,974.58
2018-03-03T04:32:25.814Z,974.60
2018-03-03T04:33:25.819Z,974.61
2018-03-03T04:34:25.827Z,974.59
2018-03-03T04:35:25.834Z,974.57
2018-03-03T04:36:25.840Z,974.57
2018-03-03T04:37:25.847Z,974.58
2018-03-03T04:38:25.852Z,974.56
2018-03-03T04:39:25.861Z,974.58
2018-03-03T04:40:25.866Z,974.60
2018-03-03T04:41:25.873Z,974.58
2018-03-03T04:42:25.879Z,974.61
2018-03-03T04:43:25.885Z,974.60
2018-03-03T04:44:25.893Z,974.60
2018-03-03T04:45:25.898Z,974.59
2018-03-03T04:46:25.907Z,974.59
2018-03-03T04:47:25.912Z,974.63
2018-03-03T04:48:25.918Z,974.57
2018-03-03T04:49:25.923Z,974.61
2018-03-03T04:50:25.930Z,974.58
2018-03-03T04:51:25.939Z,974.63
2018-03-03T04:52:25.945Z,974.61
2018-03-03T04:53:25.951Z,974.60
2018-03-03T04:54:25.957Z,974.61
2018-03-03T04:55:25.964Z,974.59
2018-03-03T04:56:25.979Z,974.58
2018-03-03T04:57:25.978Z,974.59
2018-03-03T04:58:25.986Z,974.60
2018-03-03T04:59:26.017Z,974.56
2018-03-03T05:00:25.998Z,974.56
2018-03-03T05:01:26.004Z,974.53
2018-03-03T05:02:26.011Z,974.51
2018-03-03T05:03:26.019Z,974.54
2018-03-03T05:04:26.025Z,974.53
2018-03-03T05:05:26.032Z,974.55
2018-03-03T05:06:26.040Z,974.51
2018-03-03T05:07:26.046Z,974.57
2018-03-03T05:08:26.055Z,974.52
2018-03-03T05:09:26.058Z,974.53
2018-03-03T05:10:26.065Z,974.53
2018-03-03T05:11:26.073Z,974.52
2018-03-03T05:12:26.081Z,974.48
2018-03-03T05:13:26.086Z,974.49
2018-03-03T05:14:26.094Z,974.51
2018-03-03T05:15:26.101Z,974.48
2018-03-03T05:16:26.108Z,974.44
2018-03-03T05:17:26.113Z,974.46
2018-03-03T05:18:26.120Z,974.44
2018-03-03T05:19:26.127Z,974.44
2018-03-03T05:20:26.135Z,974.42
2018-03-03T05:21:26.142Z,974.43
2018-03-03T05:22:26.148Z,974.47
2018-03-03T05:23:26.154Z,974.40
2018-03-03T05:24:26.162Z,974.45
2018-03-03T05:25:26.172Z,974.45
2018-03-03T05:26:26.176Z,974.46
2018-03-03T05:27:26.182Z,974.47
2018-03-03T05:28:26.228Z,974.44
2018-03-03T05:29:26.196Z,974.42
2018-03-03T05:30:26.203Z,974.42
2018-03-03T05:31:26.215Z,974.38
2018-03-03T05:32:26.216Z,974.45
2018-03-03T05:33:26.226Z,974.41
2018-03-03T05:34:26.232Z,974.41
2018-03-03T05:35:26.239Z,974.39
2018-03-03T05:36:26.293Z,974.41
2018-03-03T05:37:26.252Z,974.39
2018-03-03T05:38:26.260Z,974.40
2018-03-03T05:39:26.268Z,974.39
2018-03-03T05:40:26.275Z,974.40
2018-03-03T05:41:26.284Z,974.37
2018-03-03T05:42:26.288Z,974.36
2018-03-03T05:43:26.296Z,974.38
2018-03-03T05:44:26.304Z,974.35
2018-03-03T05:45:26.310Z,974.34
2018-03-03T05:46:26.316Z,974.33
2018-03-03T05:47:26.324Z,974.32
2018-03-03T05:48:26.330Z,974.32
2018-03-03T05:49:26.339Z,974.33
2018-03-03T05:50:26.394Z,974.34
2018-03-03T05:51:26.354Z,974.36
2018-03-03T05:52:26.360Z,974.31
2018-03-03T05:53:26.367Z,974.30
2018-03-03T05:54:26.373Z,974.32
2018-03-03T05:55:26.379Z,974.29
2018-03-03T05:56:26.388Z,974.28
2018-03-03T05:57:26.395Z,974.27
2018-03-03T05:58:26.403Z,974.27
2018-03-03T05:59:26.407Z,974.28
2018-03-03T06:00:26.415Z,974.33
2018-03-03T06:01:26.422Z,974.32
2018-03-03T06:02:26.428Z,974.34
2018-03-03T06:03:26.438Z,974.32
2018-03-03T06:04:26.443Z,974.34
2018-03-03T06:05:26.450Z,974.36
2018-03-03T06:06:26.456Z,974.35
2018-03-03T06:07:26.465Z,974.42
2018-03-03T06:08:26.472Z,974.39
2018-03-03T06:09:26.478Z,974.36
2018-03-03T06:10:26.486Z,974.38
2018-03-03T06:11:26.492Z,974.38
2018-03-03T06:12:26.503Z,974.45
2018-03-03T06:13:26.508Z,974.42
2018-03-03T06:14:26.514Z,974.45
2018-03-03T06:15:26.524Z,974.48
2018-03-03T06:16:26.527Z,974.47
2018-03-03T06:17:26.533Z,974.50
2018-03-03T06:18:26.541Z,974.52
2018-03-03T06:19:26.546Z,974.49
2018-03-03T06:20:26.556Z,974.50
2018-03-03T06:21:26.563Z,974.57
2018-03-03T06:22:26.569Z,974.55
2018-03-03T06:23:26.577Z,974.53
2018-03-03T06:24:26.585Z,974.56
2018-03-03T06:25:26.591Z,974.54
2018-03-03T06:26:26.598Z,974.57
2018-03-03T06:27:26.604Z,974.57
2018-03-03T06:28:26.611Z,974.56
2018-03-03T06:29:26.617Z,974.55
2018-03-03T06:30:26.624Z,974.57
2018-03-03T06:31:26.632Z,974.56
2018-03-03T06:32:26.640Z,974.57
2018-03-03T06:33:26.646Z,974.56
2018-03-03T06:34:26.652Z,974.57
2018-03-03T06:35:26.660Z,974.60
2018-03-03T06:36:26.668Z,974.59
2018-03-03T06:37:26.681Z,974.60
2018-03-03T06:38:26.681Z,974.58
2018-03-03T06:39:26.688Z,974.60
2018-03-03T06:40:26.696Z,974.59
2018-03-03T06:41:26.702Z,974.60
2018-03-03T06:42:26.709Z,974.59
2018-03-03T06:43:26.716Z,974.64
2018-03-03T06:44:26.724Z,974.63
2018-03-03T06:45:26.730Z,974.63
2018-03-03T06:46:26.737Z,974.63
2018-03-03T06:47:26.745Z,974.66
2018-03-03T06:48:26.751Z,974.64
2018-03-03T06:49:26.758Z,974.67
2018-03-03T06:50:26.765Z,974.68
2018-03-03T06:51:26.773Z,974.66
2018-03-03T06:52:26.779Z,974.65
2018-03-03T06:53:26.785Z,974.71
2018-03-03T06:54:26.795Z,974.69
2018-03-03T06:55:26.800Z,974.69
2018-03-03T06:56:26.814Z,974.67
2018-03-03T06:57:26.812Z,974.69
2018-03-03T06:58:26.821Z,974.70
2018-03-03T06:59:26.828Z,974.68
2018-03-03T07:00:26.835Z,974.66
2018-03-03T07:01:26.842Z,974.64
2018-03-03T07:02:26.852Z,974.66
2018-03-03T07:03:26.859Z,974.70
2018-03-03T07:04:26.864Z,974.69
2018-03-03T07:05:26.870Z,974.68
2018-03-03T07:06:26.878Z,974.68
2018-03-03T07:07:26.882Z,974.67
2018-03-03T07:08:26.891Z,974.69
2018-03-03T07:09:26.896Z,974.67
2018-03-03T07:10:26.911Z,974.68
2018-03-03T07:11:26.912Z,974.66
2018-03-03T07:12:26.918Z,974.69
2018-03-03T07:13:26.925Z,974.67
2018-03-03T07:14:26.932Z,974.68
2018-03-03T07:15:26.938Z,974.70
2018-03-03T07:16:26.946Z,974.68
2018-03-03T07:17:26.952Z,974.68
2018-03-03T07:18:26.962Z,974.73
2018-03-03T07:19:26.971Z,974.76
2018-03-03T07:20:26.974Z,974.78
2018-03-03T07:21:26.980Z,974.79
2018-03-03T07:22:27.025Z,974.80
2018-03-03T07:23:26.993Z,974.81
2018-03-03T07:24:27.001Z,974.81
2018-03-03T07:25:27.006Z,974.75
2018-03-03T07:26:27.015Z,974.77
2018-03-03T07:27:27.021Z,974.73
2018-03-03T07:28:27.070Z,974.78
2018-03-03T07:29:27.044Z,974.80
2018-03-03T07:30:27.043Z,974.72
2018-03-03T07:31:27.050Z,974.75
2018-03-03T07:32:27.056Z,974.73
2018-03-03T07:33:27.063Z,974.75
2018-03-03T07:34:27.069Z,974.75
2018-03-03T07:35:27.077Z,974.75
2018-03-03T07:36:27.084Z,974.77
2018-03-03T07:37:27.091Z,974.76
2018-03-03T07:38:27.094Z,974.75
2018-03-03T07:39:27.104Z,974.78
2018-03-03T07:40:27.111Z,974.73
2018-03-03T07:41:27.119Z,974.76
2018-03-03T07:42:27.170Z,974.76
2018-03-03T07:43:27.131Z,974.76
2018-03-03T07:44:27.142Z,974.75
2018-03-03T07:45:27.144Z,974.70
2018-03-03T07:46:27.152Z,974.72
2018-03-03T07:47:27.159Z,974.69
2018-03-03T07:48:27.187Z,974.69
2018-03-03T07:49:27.172Z,974.70
2018-03-03T07:50:27.179Z,974.74
2018-03-03T07:51:27.186Z,974.73
2018-03-03T07:52:27.197Z,974.75
2018-03-03T07:53:27.199Z,974.71
2018-03-03T07:54:27.209Z,974.73
2018-03-03T07:55:27.218Z,974.71
2018-03-03T07:56:27.222Z,974.75
2018-03-03T07:57:27.228Z,974.67
2018-03-03T07:58:27.234Z,974.71
2018-03-03T07:59:27.242Z,974.68
2018-03-03T08:00:27.247Z,974.70
2018-03-03T08:01:27.256Z,974.70
2018-03-03T08:02:27.261Z,974.67
2018-03-03T08:03:27.276Z,974.65
2018-03-03T08:04:27.276Z,974.66
2018-03-03T08:05:27.283Z,974.67
2018-03-03T08:06:27.292Z,974.69
2018-03-03T08:07:27.296Z,974.70
2018-03-03T08:08:27.303Z,974.70
2018-03-03T08:09:27.309Z,974.73
2018-03-03T08:10:27.316Z,974.74
2018-03-03T08:11:27.325Z,974.70
2018-03-03T08:12:27.336Z,974.64
2018-03-03T08:13:27.337Z,974.65
2018-03-03T08:14:27.344Z,974.66
2018-03-03T08:15:27.351Z,974.66
2018-03-03T08:16:27.358Z,974.66
2018-03-03T08:17:27.365Z,974.67
2018-03-03T08:18:27.371Z,974.68
2018-03-03T08:19:27.380Z,974.64
2018-03-03T08:20:27.388Z,974.68
2018-03-03T08:21:27.392Z,974.70
2018-03-03T08:22:27.399Z,974.71
2018-03-03T08:23:27.408Z,974.71
2018-03-03T08:24:27.414Z,974.68
2018-03-03T08:25:27.421Z,974.69
2018-03-03T08:26:27.427Z,974.69
2018-03-03T08:27:27.434Z,974.71
2018-03-03T08:28:27.442Z,974.70
2018-03-03T08:29:27.450Z,974.73
2018-03-03T08:30:27.455Z,974.70
2018-03-03T08:31:27.464Z,974.72
2018-03-03T08:32:27.469Z,974.73
2018-03-03T08:33:27.473Z,974.72
2018-03-03T08:34:27.483Z,974.67
2018-03-03T08:35:27.490Z,974.68
2018-03-03T08:36:27.498Z,974.69
2018-03-03T08:37:27.504Z,974.73
2018-03-03T08:38:27.510Z,974.71
2018-03-03T08:39:27.518Z,974.68
2018-03-03T08:40:27.526Z,974.67
2018-03-03T08:41:27.531Z,974.65
2018-03-03T08:42:27.538Z,974.70
2018-03-03T08:43:27.544Z,974.73
2018-03-03T08:44:27.555Z,974.71
2018-03-03T08:45:27.558Z,974.75
2018-03-03T08:46:27.566Z,974.73
2018-03-03T08:47:27.574Z,974.72
2018-03-03T08:48:27.581Z,974.69
2018-03-03T08:49:27.587Z,974.72
2018-03-03T08:50:27.594Z,974.66
2018-03-03T08:51:27.648Z,974.65
2018-03-03T08:52:27.608Z,974.64
2018-03-03T08:53:27.614Z,974.62
2018-03-03T08:54:27.622Z,974.68
2018-03-03T08:55:27.629Z,974.67
2018-03-03T08:56:27.636Z,974.69
2018-03-03T08:57:27.643Z,974.69
2018-03-03T08:58:27.649Z,974.65
2018-03-03T08:59:27.656Z,974.67
2018-03-03T09:00:27.664Z,974.70
2018-03-03T09:01:27.670Z,974.69
2018-03-03T09:02:27.678Z,974.68
2018-03-03T09:03:27.684Z,974.68
2018-03-03T09:04:27.719Z,974.70
2018-03-03T09:05:27.698Z,974.71
2018-03-03T09:06:27.709Z,974.71
2018-03-03T09:07:27.712Z,974.72
2018-03-03T09:08:27.720Z,974.68
2018-03-03T09:09:27.726Z,974.70
2018-03-03T09:10:27.733Z,974.68
2018-03-03T09:11:27.739Z,974.70
2018-03-03T09:12:27.743Z,974.71
2018-03-03T09:13:27.753Z,974.69
2018-03-03T09:14:27.772Z,974.65
2018-03-03T09:15:27.771Z,974.67
2018-03-03T09:16:27.841Z,974.68
2018-03-03T09:17:27.781Z,974.70
2018-03-03T09:18:27.786Z,974.68
2018-03-03T09:19:27.795Z,974.70
2018-03-03T09:20:27.803Z,974.73
2018-03-03T09:21:27.808Z,974.71
2018-03-03T09:22:27.816Z,974.68
2018-03-03T09:23:27.822Z,974.72
2018-03-03T09:24:27.829Z,974.76
2018-03-03T09:25:27.838Z,974.76
2018-03-03T09:26:27.843Z,974.76
2018-03-03T09:27:27.849Z,974.71
2018-03-03T09:28:27.856Z,974.78
2018-03-03T09:29:27.866Z,974.80
2018-03-03T09:30:27.870Z,974.79
2018-03-03T09:31:27.879Z,974.76
2018-03-03T09:32:27.889Z,974.78
2018-03-03T09:33:27.889Z,974.79
2018-03-03T09:34:27.895Z,974.81
2018-03-03T09:35:27.903Z,974.78
2018-03-03T09:36:27.911Z,974.81
2018-03-03T09:37:27.916Z,974.79
2018-03-03T09:38:27.923Z,974.82
2018-03-03T09:39:27.935Z,974.86
2018-03-03T09:40:27.939Z,974.88
2018-03-03T09:41:27.944Z,974.86
2018-03-03T09:42:27.951Z,974.87
2018-03-03T09:43:27.958Z,974.84
2018-03-03T09:44:27.965Z,974.88
2018-03-03T09:45:27.971Z,974.87
2018-03-03T09:46:27.978Z,974.88
2018-03-03T09:47:27.984Z,974.89
2018-03-03T09:48:27.992Z,974.88
2018-03-03T09:49:27.998Z,974.87
2018-03-03T09:50:28.007Z,974.94
2018-03-03T09:51:28.012Z,974.94
2018-03-03T09:52:28.020Z,974.92
2018-03-03T09:53:28.027Z,974.92
2018-03-03T09:54:28.036Z,974.94
2018-03-03T09:55:28.041Z,974.96
2018-03-03T09:56:28.046Z,974.95
2018-03-03T09:57:28.054Z,974.94
2018-03-03T09:58:28.060Z,974.94
2018-03-03T09:59:28.068Z,974.92
2018-03-03T10:00:28.076Z,974.91
2018-03-03T10:01:28.127Z,974.91
2018-03-03T10:02:28.090Z,974.92
2018-03-03T10:03:28.096Z,974.89
2018-03-03T10:04:28.103Z,974.90
2018-03-03T10:05:28.113Z,974.94
2018-03-03T10:06:28.117Z,974.92
2018-03-03T10:07:28.124Z,974.95
2018-03-03T10:08:28.131Z,974.98
2018-03-03T10:09:28.141Z,974.99
2018-03-03T10:10:28.144Z,975.06
2018-03-03T10:11:28.151Z,975.03
2018-03-03T10:12:28.159Z,975.09
2018-03-03T10:13:28.164Z,975.05
2018-03-03T10:14:28.171Z,975.07
2018-03-03T10:15:28.180Z,975.06
2018-03-03T10:16:28.188Z,975.04
2018-03-03T10:17:28.193Z,975.03
2018-03-03T10:18:28.199Z,975.03
2018-03-03T10:19:28.207Z,975.06
2018-03-03T10:20:28.213Z,975.05
2018-03-03T10:21:28.219Z,975.05
2018-03-03T10:22:28.234Z,975.04
2018-03-03T10:23:28.237Z,975.09
2018-03-03T10:24:28.242Z,975.05
2018-03-03T10:25:28.253Z,975.09
2018-03-03T10:26:28.254Z,975.08
2018-03-03T10:27:28.263Z,975.06
2018-03-03T10:28:28.269Z,975.07
2018-03-03T10:29:28.277Z,975.08
2018-03-03T10:30:28.283Z,975.08
2018-03-03T10:31:28.290Z,975.02
2018-03-03T10:32:28.298Z,975.06
2018-03-03T10:33:28.307Z,975.04
2018-03-03T10:34:28.312Z,975.04
2018-03-03T10:35:28.318Z,975.05
2018-03-03T10:36:28.325Z,975.02
2018-03-03T10:37:28.333Z,975.00
2018-03-03T10:38:28.339Z,974.99
2018-03-03T10:39:28.344Z,974.98
2018-03-03T10:40:28.352Z,974.97
2018-03-03T10:41:28.365Z,974.94
2018-03-03T10:42:28.366Z,974.96
2018-03-03T10:43:28.373Z,974.92
2018-03-03T10:44:28.389Z,974.98
2018-03-03T10:45:28.389Z,974.98
2018-03-03T10:46:28.393Z,974.99
2018-03-03T10:47:28.402Z,974.97
2018-03-03T10:48:28.409Z,974.95
2018-03-03T10:49:28.414Z,974.94
2018-03-03T10:50:28.422Z,974.94
2018-03-03T10:51:28.429Z,974.96
2018-03-03T10:52:28.435Z,974.92
2018-03-03T10:53:28.446Z,974.91
2018-03-03T10:54:28.449Z,974.91
2018-03-03T10:55:28.458Z,974.90
2018-03-03T10:56:28.467Z,974.91
2018-03-03T10:57:28.486Z,974.96
2018-03-03T10:58:28.498Z,974.95
2018-03-03T10:59:28.485Z,974.97
2018-03-03T11:00:28.496Z,974.97
2018-03-03T11:01:28.499Z,974.94
2018-03-03T11:02:28.505Z,974.95
2018-03-03T11:03:28.512Z,974.95
2018-03-03T11:04:28.522Z,974.94
2018-03-03T11:05:28.526Z,974.90
2018-03-03T11:06:28.531Z,974.91
2018-03-03T11:07:28.540Z,974.96
2018-03-03T11:08:28.548Z,974.93
2018-03-03T11:09:28.552Z,974.94
2018-03-03T11:10:28.558Z,975.00
2018-03-03T11:11:28.573Z,974.98
2018-03-03T11:12:28.581Z,974.97
2018-03-03T11:13:28.587Z,975.02
2018-03-03T11:14:28.589Z,975.01
2018-03-03T11:15:28.597Z,975.00
2018-03-03T11:16:28.599Z,975.04
2018-03-03T11:17:28.611Z,975.05
2018-03-03T11:18:28.618Z,975.05
2018-03-03T11:19:28.624Z,975.06
2018-03-03T11:20:28.632Z,975.01
2018-03-03T11:21:28.640Z,975.06
2018-03-03T11:22:28.645Z,975.03
2018-03-03T11:23:28.653Z,975.06
2018-03-03T11:24:28.661Z,975.09
2018-03-03T11:25:28.667Z,975.06
2018-03-03T11:26:28.675Z,975.08
2018-03-03T11:27:28.698Z,975.09
2018-03-03T11:28:28.689Z,975.05
2018-03-03T11:29:28.696Z,975.06
2018-03-03T11:30:28.703Z,975.08
2018-03-03T11:31:28.709Z,975.02
2018-03-03T11:32:28.719Z,975.06
2018-03-03T11:33:28.724Z,975.04
2018-03-03T11:34:28.732Z,975.00
2018-03-03T11:35:28.740Z,974.96
2018-03-03T11:36:28.747Z,974.97
2018-03-03T11:37:28.756Z,974.99
2018-03-03T11:38:28.760Z,974.99
2018-03-03T11:39:28.766Z,974.98
2018-03-03T11:40:33.134Z,975.01
2018-03-03T11:41:28.780Z,974.99
2018-03-03T11:42:28.789Z,975.01
2018-03-03T11:43:28.795Z,974.97
2018-03-03T11:44:28.803Z,975.03
2018-03-03T11:45:28.810Z,975.03
2018-03-03T11:46:28.816Z,975.03
2018-03-03T11:47:28.858Z,975.02
2018-03-03T11:48:28.831Z,975.03
2018-03-03T11:49:28.841Z,975.01
2018-03-03T11:50:28.845Z,974.99
2018-03-03T11:51:28.857Z,974.97
2018-03-03T11:52:28.859Z,974.98
2018-03-03T11:53:28.865Z,975.04
2018-03-03T11:54:28.876Z,975.01
2018-03-03T11:55:28.880Z,975.02
2018-03-03T11:56:28.887Z,975.04
2018-03-03T11:57:28.894Z,975.04
2018-03-03T11:58:28.902Z,975.03
2018-03-03T11:59:28.909Z,975.04
2018-03-03T12:00:28.916Z,975.05
2018-03-03T12:01:28.922Z,975.04
2018-03-03T12:02:28.930Z,975.07
2018-03-03T12:03:28.937Z,975.03
2018-03-03T12:04:28.944Z,975.07
2018-03-03T12:05:28.951Z,975.07
2018-03-03T12:06:28.957Z,975.07
2018-03-03T12:07:28.969Z,975.05
2018-03-03T12:08:28.972Z,975.05
2018-03-03T12:09:28.979Z,975.07
2018-03-03T12:10:28.988Z,975.07
2018-03-03T12:11:28.994Z,975.08
2018-03-03T12:12:29.002Z,975.07
2018-03-03T12:13:29.009Z,975.07
2018-03-03T12:14:29.015Z,975.04
2018-03-03T12:15:29.022Z,975.03
2018-03-03T12:16:29.031Z,975.06
2018-03-03T12:17:29.038Z,975.00
2018-03-03T12:18:29.044Z,975.01
2018-03-03T12:19:29.052Z,975.03
2018-03-03T12:20:29.058Z,975.04
2018-03-03T12:21:29.065Z,975.09
2018-03-03T12:22:29.073Z,975.08
2018-03-03T12:23:29.080Z,975.08
2018-03-03T12:24:29.090Z,975.11
2018-03-03T12:25:29.094Z,975.10
2018-03-03T12:26:29.100Z,975.10
2018-03-03T12:27:29.109Z,975.09
2018-03-03T12:28:29.115Z,975.13